createdAt,value
2019-03-21T00:01:03.821Z,45.23
2019-03-21T00:03:33.506Z,43.03
2019-03-21T00:06:09.088Z,45.23
2019-03-21T00:08:38.700Z,43.67
2019-03-21T00:11:53.688Z,46.07
2019-03-21T00:14:31.056Z,41.93
2019-03-21T00:17:00.712Z,43.33
2019-03-21T00:19:30.488Z,45.13
2019-03-21T00:22:00.182Z,45.70
2019-03-21T00:24:29.898Z,44.20
2019-03-21T00:26:59.559Z,46.73
2019-03-21T00:29:29.289Z,46.63
2019-03-21T00:31:58.959Z,45.97
2019-03-21T00:34:30.943Z,44.93
2019-03-21T00:37:00.637Z,45.83
2019-03-21T00:39:33.082Z,45.33
2019-03-21T00:42:01.730Z,46.03
2019-03-21T00:44:31.504Z,47.90
2019-03-21T00:47:01.180Z,47.27
2019-03-21T00:49:30.941Z,47.87
2019-03-21T00:52:00.634Z,47.73
2019-03-21T00:54:30.232Z,49.23
2019-03-21T00:56:59.884Z,50.03
2019-03-21T00:59:29.615Z,48.23
2019-03-21T01:02:01.804Z,46.03
2019-03-21T01:04:33.768Z,47.60
2019-03-21T01:07:04.322Z,49.50
2019-03-21T01:09:33.972Z,52.27
2019-03-21T01:12:04.113Z,50.47
2019-03-21T01:14:33.793Z,50.10
2019-03-21T01:17:03.530Z,48.17
2019-03-21T01:19:33.573Z,47.90
2019-03-21T01:22:03.324Z,49.33
2019-03-21T01:24:34.656Z,51.03
2019-03-21T01:27:04.292Z,53.07
2019-03-21T01:29:33.976Z,51.03
2019-03-21T01:32:03.643Z,55.07
2019-03-21T01:34:33.569Z,53.53
2019-03-21T01:37:03.311Z,52.83
2019-03-21T01:39:32.931Z,52.13
2019-03-21T01:42:02.653Z,54.70
2019-03-21T01:44:41.005Z,53.40
2019-03-21T01:47:04.925Z,54.30
2019-03-21T01:49:34.615Z,56.37
2019-03-21T01:52:04.423Z,56.87
2019-03-21T01:54:33.999Z,53.10
2019-03-21T01:57:03.731Z,53.37
2019-03-21T01:59:33.247Z,53.53
2019-03-21T02:02:03.217Z,54.67
2019-03-21T02:04:33.261Z,54.73
2019-03-21T02:07:03.201Z,56.53
2019-03-21T02:09:32.919Z,55.17
2019-03-21T02:12:02.667Z,52.00
2019-03-21T02:14:32.334Z,57.90
2019-03-21T02:17:02.047Z,64.17
2019-03-21T02:19:31.944Z,57.70
2019-03-21T02:22:01.566Z,64.87
2019-03-21T02:24:31.170Z,64.63
2019-03-21T02:27:02.358Z,57.37
2019-03-21T02:29:33.620Z,62.17
2019-03-21T02:32:03.274Z,59.63
2019-03-21T02:34:33.000Z,60.57
2019-03-21T02:37:02.840Z,68.00
2019-03-21T02:39:32.616Z,64.23
2019-03-21T02:42:02.804Z,64.10
2019-03-21T02:44:34.864Z,69.63
2019-03-21T02:47:04.522Z,66.57
2019-03-21T02:49:34.194Z,68.90
2019-03-21T02:52:03.924Z,68.60
2019-03-21T02:54:33.542Z,70.77
2019-03-21T02:57:03.546Z,71.37
2019-03-21T02:59:34.384Z,80.43
2019-03-21T03:02:04.218Z,72.93
2019-03-21T03:04:33.878Z,71.50
2019-03-21T03:07:03.556Z,75.50
2019-03-21T03:09:33.730Z,67.97
2019-03-21T03:12:03.406Z,70.13
2019-03-21T03:14:33.163Z,69.53
2019-03-21T03:17:02.815Z,76.27
2019-03-21T03:19:32.570Z,73.67
2019-03-21T03:22:02.296Z,75.83
2019-03-21T03:24:33.486Z,73.40
2019-03-21T03:27:03.128Z,77.50
2019-03-21T03:29:32.821Z,75.90
2019-03-21T03:32:02.499Z,78.63
2019-03-21T03:34:32.163Z,73.10
2019-03-21T03:37:03.665Z,79.27
2019-03-21T03:39:36.901Z,80.00
2019-03-21T03:42:05.461Z,76.10
2019-03-21T03:44:35.084Z,75.43
2019-03-21T03:47:04.743Z,78.30
2019-03-21T03:49:34.520Z,78.53
2019-03-21T03:52:04.205Z,76.77
2019-03-21T03:54:33.927Z,77.40
2019-03-21T03:57:03.627Z,77.53
2019-03-21T03:59:34.017Z,77.30
2019-03-21T04:02:03.987Z,80.33
2019-03-21T04:04:35.249Z,81.87
2019-03-21T04:07:04.892Z,87.87
2019-03-21T04:09:35.101Z,83.00
2019-03-21T04:12:04.921Z,83.70
2019-03-21T04:14:35.465Z,83.87
2019-03-21T04:17:05.960Z,85.03
2019-03-21T04:19:36.930Z,87.50
2019-03-21T04:22:06.589Z,79.67
2019-03-21T04:24:36.354Z,80.60
2019-03-21T04:27:06.032Z,79.37
2019-03-21T04:29:35.775Z,74.37
2019-03-21T04:32:05.524Z,76.43
2019-03-21T04:34:35.174Z,80.30
2019-03-21T04:37:04.840Z,72.40
2019-03-21T04:39:34.547Z,75.60
2019-03-21T04:42:04.234Z,76.90
2019-03-21T04:44:33.880Z,79.37
2019-03-21T04:47:04.612Z,78.27
2019-03-21T04:49:34.404Z,75.00
2019-03-21T04:52:04.062Z,73.80
2019-03-21T04:54:33.754Z,56.17
2019-03-21T04:57:03.430Z,56.60
2019-03-21T04:59:33.060Z,52.47
2019-03-21T05:02:02.746Z,53.93
2019-03-21T05:04:32.454Z,52.67
2019-03-21T05:07:02.095Z,50.57
2019-03-21T05:09:32.053Z,49.87
2019-03-21T05:12:02.697Z,47.87
2019-03-21T05:14:32.292Z,48.57
2019-03-21T05:17:01.951Z,48.50
2019-03-21T05:19:31.598Z,46.77
2019-03-21T05:22:01.222Z,47.37
2019-03-21T05:24:30.961Z,47.13
2019-03-21T05:27:00.610Z,48.00
2019-03-21T05:29:30.423Z,47.40
2019-03-21T05:32:03.917Z,48.43
2019-03-21T05:34:33.871Z,49.00
2019-03-21T05:37:03.525Z,50.50
2019-03-21T05:39:33.160Z,52.20
2019-03-21T05:42:04.210Z,54.40
2019-03-21T05:44:46.972Z,55.23
2019-03-21T05:47:16.611Z,55.23
2019-03-21T05:49:48.135Z,58.23
2019-03-21T05:52:17.788Z,56.13
2019-03-21T05:54:47.369Z,57.67
2019-03-21T05:57:17.058Z,56.90
2019-03-21T05:59:46.733Z,60.33
2019-03-21T06:02:16.360Z,59.00
2019-03-21T06:04:46.006Z,58.63
2019-03-21T06:07:22.297Z,56.83
2019-03-21T06:09:51.938Z,56.60
2019-03-21T06:12:21.601Z,54.47
2019-03-21T06:14:54.910Z,57.33
2019-03-21T06:17:24.618Z,54.33
2019-03-21T06:20:17.904Z,56.83
2019-03-21T06:23:00.394Z,56.20
2019-03-21T06:26:09.045Z,56.93
2019-03-21T06:28:38.733Z,57.33
2019-03-21T06:31:10.387Z,56.93
2019-03-21T06:33:40.247Z,57.30
2019-03-21T06:36:09.907Z,56.97
2019-03-21T06:38:39.512Z,54.53
2019-03-21T06:41:09.287Z,56.80
2019-03-21T06:43:38.985Z,56.47
2019-03-21T06:46:09.643Z,58.80
2019-03-21T06:48:39.335Z,56.83
2019-03-21T06:51:09.007Z,55.07
2019-03-21T06:53:38.697Z,57.53
2019-03-21T06:56:08.370Z,56.27
2019-03-21T06:58:39.334Z,56.03
2019-03-21T07:01:08.993Z,57.33
2019-03-21T07:03:38.820Z,57.90
2019-03-21T07:06:08.491Z,56.97
2019-03-21T07:08:39.547Z,52.93
2019-03-21T07:11:10.917Z,55.27
2019-03-21T07:13:42.943Z,57.73
2019-03-21T07:16:13.156Z,55.43
2019-03-21T07:18:47.527Z,58.40
2019-03-21T07:21:18.988Z,54.13
2019-03-21T07:23:48.922Z,54.80
2019-03-21T07:26:18.658Z,53.30
2019-03-21T07:28:48.314Z,56.80
2019-03-21T07:31:17.984Z,52.27
2019-03-21T07:33:47.627Z,53.30
2019-03-21T07:36:17.568Z,53.20
2019-03-21T07:38:47.076Z,54.83
2019-03-21T07:41:17.160Z,54.33
2019-03-21T07:43:48.037Z,50.83
2019-03-21T07:46:17.670Z,52.43
2019-03-21T07:48:47.275Z,50.80
2019-03-21T07:51:16.987Z,46.43
2019-03-21T07:53:46.779Z,44.63
2019-03-21T07:56:16.992Z,41.50
2019-03-21T07:58:48.786Z,38.03
2019-03-21T08:01:18.465Z,37.77
2019-03-21T08:03:48.375Z,33.40
2019-03-21T08:06:18.018Z,34.00
2019-03-21T08:08:47.663Z,34.10
2019-03-21T08:11:17.211Z,31.17
2019-03-21T08:13:46.907Z,32.43
2019-03-21T08:16:16.610Z,29.67
2019-03-21T08:18:46.566Z,29.37
2019-03-21T08:21:16.352Z,28.33
2019-03-21T08:23:46.079Z,27.63
2019-03-21T08:26:15.764Z,27.03
2019-03-21T08:28:45.486Z,28.07
2019-03-21T08:31:19.094Z,27.70
2019-03-21T08:33:48.876Z,27.60
2019-03-21T08:36:18.554Z,27.20
2019-03-21T08:38:48.202Z,29.57
2019-03-21T08:41:17.951Z,26.20
2019-03-21T08:43:48.233Z,25.53
2019-03-21T08:46:17.868Z,26.67
2019-03-21T08:48:47.448Z,24.27
2019-03-21T08:51:18.702Z,24.80
2019-03-21T08:53:48.395Z,26.10
2019-03-21T08:56:25.730Z,27.40
2019-03-21T08:59:17.075Z,25.20
2019-03-21T09:01:47.043Z,23.30
2019-03-21T09:04:16.697Z,25.60
2019-03-21T09:06:46.339Z,23.13
2019-03-21T09:09:16.680Z,25.77
2019-03-21T09:11:46.418Z,24.27
2019-03-21T09:14:16.055Z,24.73
2019-03-21T09:16:45.835Z,25.83
2019-03-21T09:19:15.507Z,22.23
2019-03-21T09:21:45.985Z,23.17
2019-03-21T09:24:15.629Z,20.30
2019-03-21T09:26:45.267Z,21.00
2019-03-21T09:29:14.879Z,22.70
2019-03-21T09:31:44.567Z,19.13
2019-03-21T09:34:14.349Z,17.33
2019-03-21T09:36:44.122Z,13.70
2019-03-21T09:39:13.760Z,14.33
2019-03-21T09:41:43.421Z,14.67
2019-03-21T09:44:13.096Z,16.90
2019-03-21T09:46:50.933Z,18.00
2019-03-21T09:49:14.150Z,16.07
2019-03-21T09:51:43.826Z,17.37
2019-03-21T09:54:13.514Z,17.97
2019-03-21T09:56:43.237Z,16.47
2019-03-21T09:59:12.893Z,16.67
2019-03-21T10:01:42.804Z,17.70
2019-03-21T10:04:12.436Z,19.77
2019-03-21T10:06:42.038Z,16.33
2019-03-21T10:09:11.706Z,18.90
2019-03-21T10:11:41.661Z,17.53
2019-03-21T10:14:11.320Z,16.20
2019-03-21T10:16:41.121Z,16.73
2019-03-21T10:19:11.657Z,17.87
2019-03-21T10:21:43.551Z,19.03
2019-03-21T10:24:12.825Z,16.47
2019-03-21T10:26:42.480Z,14.27
2019-03-21T10:29:14.273Z,15.23
2019-03-21T10:31:43.945Z,15.70
2019-03-21T10:34:13.643Z,14.33
2019-03-21T10:36:43.425Z,15.90
2019-03-21T10:39:13.105Z,15.43
2019-03-21T10:41:42.789Z,15.57
2019-03-21T10:44:12.461Z,13.77
2019-03-21T10:46:42.150Z,13.77
2019-03-21T10:49:12.069Z,15.10
2019-03-21T10:51:41.852Z,15.80
2019-03-21T10:54:11.509Z,14.47
2019-03-21T10:56:41.272Z,13.30
2019-03-21T10:59:11.783Z,13.83
2019-03-21T11:01:41.454Z,15.50
2019-03-21T11:04:11.134Z,14.00
2019-03-21T11:06:40.912Z,13.90
2019-03-21T11:09:10.688Z,15.17
2019-03-21T11:11:40.354Z,14.57
2019-03-21T11:14:10.065Z,14.57
2019-03-21T11:16:39.742Z,14.23
2019-03-21T11:19:09.446Z,13.83
2019-03-21T11:21:39.128Z,14.90
2019-03-21T11:24:10.319Z,11.33
2019-03-21T11:26:40.003Z,11.43
2019-03-21T11:29:09.625Z,12.20
2019-03-21T11:31:39.271Z,12.03
2019-03-21T11:34:09.013Z,12.47
2019-03-21T11:36:38.975Z,12.53
2019-03-21T11:39:08.991Z,10.13
2019-03-21T11:41:38.640Z,8.80
2019-03-21T11:44:08.336Z,10.47
2019-03-21T11:46:38.016Z,11.03
2019-03-21T11:49:07.959Z,11.07
2019-03-21T11:51:37.628Z,10.63
2019-03-21T11:54:07.523Z,10.73
2019-03-21T11:56:37.180Z,10.67
2019-03-21T12:02:27.069Z,10.50
2019-03-21T12:04:50.997Z,10.90
2019-03-21T12:07:20.656Z,9.83
2019-03-21T12:09:50.358Z,11.80
2019-03-21T12:12:20.279Z,11.97
2019-03-21T12:14:49.871Z,12.03
2019-03-21T12:17:19.572Z,12.53
2019-03-21T12:19:49.325Z,13.83
2019-03-21T12:22:29.454Z,13.73
2019-03-21T12:24:51.692Z,13.80
2019-03-21T12:27:21.394Z,13.23
2019-03-21T12:29:51.132Z,13.27
2019-03-21T12:32:20.824Z,14.13
2019-03-21T12:34:50.458Z,13.27
2019-03-21T12:37:21.680Z,13.33
2019-03-21T12:39:51.376Z,13.23
2019-03-21T12:42:21.090Z,13.93
2019-03-21T12:44:50.850Z,13.40
2019-03-21T12:47:30.782Z,13.43
2019-03-21T12:49:53.889Z,14.53
2019-03-21T12:52:23.592Z,15.00
2019-03-21T12:54:53.291Z,12.97
2019-03-21T12:57:23.071Z,14.83
2019-03-21T12:59:52.844Z,17.67
2019-03-21T13:02:32.086Z,17.53
2019-03-21T13:04:53.943Z,16.40
2019-03-21T13:07:25.407Z,16.23
2019-03-21T13:09:56.651Z,15.47
2019-03-21T13:12:26.211Z,15.20
2019-03-21T13:14:55.843Z,14.47
2019-03-21T13:17:25.549Z,14.03
2019-03-21T13:19:55.267Z,14.27
2019-03-21T13:22:24.985Z,14.13
2019-03-21T13:24:55.103Z,14.93
2019-03-21T13:27:24.784Z,12.03
2019-03-21T13:29:54.436Z,16.27
2019-03-21T13:32:24.156Z,16.20
2019-03-21T13:34:55.751Z,18.00
2019-03-21T13:37:25.784Z,14.50
2019-03-21T13:39:55.489Z,15.20
2019-03-21T13:42:25.129Z,14.40
2019-03-21T13:44:54.819Z,16.00
2019-03-21T13:47:25.019Z,14.93
2019-03-21T13:49:54.728Z,14.17
2019-03-21T13:52:24.423Z,15.47
2019-03-21T13:54:54.070Z,15.00
2019-03-21T13:57:23.737Z,13.90
2019-03-21T13:59:55.934Z,13.70
2019-03-21T14:02:25.605Z,12.50
2019-03-21T14:04:55.189Z,14.30
2019-03-21T14:07:24.994Z,12.57
2019-03-21T14:09:54.646Z,11.30
2019-03-21T14:16:31.760Z,11.53
2019-03-21T14:19:01.391Z,10.97
2019-03-21T14:21:32.907Z,10.70
2019-03-21T14:24:03.168Z,11.13
2019-03-21T14:26:33.272Z,10.37
2019-03-21T14:29:12.281Z,10.80
2019-03-21T14:31:35.391Z,11.33
2019-03-21T14:34:05.561Z,11.00
2019-03-21T14:36:36.027Z,10.97
2019-03-21T14:39:07.395Z,10.97
2019-03-21T14:41:37.436Z,11.70
2019-03-21T14:44:07.319Z,12.10
2019-03-21T14:46:36.914Z,13.13
2019-03-21T14:49:06.582Z,12.47
2019-03-21T14:51:36.323Z,13.57
2019-03-21T14:54:05.997Z,14.23
2019-03-21T14:56:35.658Z,15.10
2019-03-21T14:59:05.955Z,16.57
2019-03-21T15:01:40.804Z,15.80
2019-03-21T15:04:10.666Z,14.83
2019-03-21T15:06:40.314Z,15.50
2019-03-21T15:09:09.993Z,14.10
2019-03-21T15:11:39.832Z,11.93
2019-03-21T15:14:09.585Z,11.60
2019-03-21T15:16:39.348Z,11.13
2019-03-21T15:19:10.348Z,10.00
2019-03-21T15:21:40.110Z,9.30
2019-03-21T15:24:11.359Z,9.37
2019-03-21T15:26:41.049Z,10.50
2019-03-21T15:29:10.725Z,11.40
2019-03-21T15:31:40.386Z,11.40
2019-03-21T15:34:10.048Z,11.70
2019-03-21T15:36:40.164Z,12.23
2019-03-21T15:39:09.829Z,11.83
2019-03-21T15:41:42.197Z,13.73
2019-03-21T15:44:11.825Z,13.10
2019-03-21T15:46:41.864Z,12.73
2019-03-21T15:49:14.771Z,13.63
2019-03-21T15:52:06.915Z,13.43
2019-03-21T15:54:36.553Z,12.80
2019-03-21T15:57:06.200Z,14.10
2019-03-21T15:59:35.871Z,12.57
2019-03-21T16:02:05.832Z,14.20
2019-03-21T16:04:35.541Z,13.47
2019-03-21T16:07:05.414Z,14.57
2019-03-21T16:09:35.040Z,14.17
2019-03-21T16:12:04.710Z,14.60
2019-03-21T16:14:36.675Z,14.50
2019-03-21T16:17:06.395Z,15.07
2019-03-21T16:19:36.408Z,14.00
2019-03-21T16:22:06.080Z,15.37
2019-03-21T16:24:35.810Z,15.30
2019-03-21T16:27:05.566Z,13.90
2019-03-21T16:29:35.877Z,14.97
2019-03-21T16:32:05.828Z,14.80
2019-03-21T16:34:36.111Z,16.57
2019-03-21T16:37:06.290Z,15.70
2019-03-21T16:39:37.902Z,15.70
2019-03-21T16:42:07.598Z,15.23
2019-03-21T16:44:37.247Z,15.43
2019-03-21T16:47:06.928Z,16.27
2019-03-21T16:49:36.543Z,16.97
2019-03-21T16:52:06.191Z,16.60
2019-03-21T16:54:36.297Z,16.90
2019-03-21T16:57:06.066Z,16.03
2019-03-21T16:59:36.047Z,14.97
2019-03-21T17:02:05.769Z,15.13
2019-03-21T17:04:35.461Z,14.10
2019-03-21T17:07:05.194Z,16.67
2019-03-21T17:09:34.839Z,16.87
2019-03-21T17:12:04.526Z,16.80
2019-03-21T17:14:34.272Z,15.93
2019-03-21T17:17:05.698Z,16.43
2019-03-21T17:19:35.459Z,15.80
2019-03-21T17:22:05.111Z,15.07
2019-03-21T17:24:34.812Z,14.20
2019-03-21T17:27:04.564Z,14.33
2019-03-21T17:29:37.417Z,14.67
2019-03-21T17:32:08.478Z,15.20
2019-03-21T17:34:39.307Z,14.20
2019-03-21T17:37:08.953Z,13.43
2019-03-21T17:39:38.586Z,13.63
2019-03-21T17:42:08.309Z,14.47
2019-03-21T17:44:40.034Z,15.27
2019-03-21T17:47:09.992Z,14.17
2019-03-21T17:49:40.571Z,15.30
2019-03-21T17:52:10.201Z,14.37
2019-03-21T17:54:41.850Z,14.33
2019-03-21T17:57:12.312Z,14.13
2019-03-21T17:59:41.945Z,14.93
2019-03-21T18:02:12.867Z,14.37
2019-03-21T18:04:42.613Z,14.53
2019-03-21T18:07:12.249Z,14.37
2019-03-21T18:09:41.887Z,13.17
2019-03-21T18:12:14.798Z,13.90
2019-03-21T18:14:44.723Z,13.67
2019-03-21T18:17:16.202Z,14.80
2019-03-21T18:19:48.546Z,15.80
2019-03-21T18:22:18.388Z,15.23
2019-03-21T18:24:53.689Z,17.40
2019-03-21T18:27:19.603Z,15.00
2019-03-21T18:29:50.259Z,18.87
2019-03-21T18:32:20.654Z,21.00
2019-03-21T18:34:50.355Z,21.87
2019-03-21T18:37:19.998Z,22.80
2019-03-21T18:39:49.962Z,22.63
2019-03-21T18:42:19.658Z,20.87
2019-03-21T18:44:51.344Z,18.77
2019-03-21T18:47:21.133Z,20.70
2019-03-21T18:49:50.836Z,20.93
2019-03-21T18:52:20.562Z,21.83
2019-03-21T18:54:50.280Z,21.43
2019-03-21T18:57:21.408Z,21.13
2019-03-21T18:59:51.082Z,21.00
2019-03-21T19:02:20.739Z,20.93
2019-03-21T19:04:52.162Z,20.37
2019-03-21T19:07:21.814Z,21.90
2019-03-21T19:09:51.400Z,20.80
2019-03-21T19:12:21.135Z,23.87
2019-03-21T19:14:52.039Z,19.47
2019-03-21T19:17:22.213Z,20.67
2019-03-21T19:19:53.485Z,21.27
2019-03-21T19:22:23.202Z,16.43
2019-03-21T19:24:55.001Z,16.67
2019-03-21T19:27:24.696Z,16.60
2019-03-21T19:29:55.886Z,15.13
2019-03-21T19:32:27.478Z,16.13
2019-03-21T19:34:57.197Z,16.37
2019-03-21T19:37:26.832Z,16.93
2019-03-21T19:39:56.428Z,15.93
2019-03-21T19:42:26.090Z,17.00
2019-03-21T19:44:55.763Z,16.33
2019-03-21T19:47:30.197Z,17.43
2019-03-21T19:49:56.748Z,18.37
2019-03-21T19:52:26.402Z,16.97
2019-03-21T19:54:56.002Z,16.43
2019-03-21T19:57:25.771Z,17.43
2019-03-21T19:59:55.456Z,16.57
2019-03-21T20:02:25.164Z,16.43
2019-03-21T20:04:54.940Z,19.70
2019-03-21T20:07:24.603Z,17.30
2019-03-21T20:09:54.373Z,16.83
2019-03-21T20:12:24.147Z,17.10
2019-03-21T20:14:53.779Z,18.50
2019-03-21T20:17:23.500Z,17.63
2019-03-21T20:19:53.165Z,17.70
2019-03-21T20:22:23.017Z,18.47
2019-03-21T20:24:52.827Z,19.33
2019-03-21T20:27:22.525Z,17.90
2019-03-21T20:29:52.275Z,19.07
2019-03-21T20:32:21.891Z,18.43
2019-03-21T20:34:51.599Z,18.67
2019-03-21T20:37:21.231Z,20.83
2019-03-21T20:39:50.891Z,20.77
2019-03-21T20:42:22.835Z,21.73
2019-03-21T20:44:52.496Z,22.63
2019-03-21T20:47:23.361Z,23.93
2019-03-21T20:49:53.072Z,24.67
2019-03-21T20:52:22.735Z,23.80
2019-03-21T20:54:52.279Z,24.77
2019-03-21T20:57:21.974Z,23.83
2019-03-21T20:59:52.150Z,23.43
2019-03-21T21:02:23.133Z,23.87
2019-03-21T21:04:52.754Z,23.47
2019-03-21T21:07:22.384Z,23.83
2019-03-21T21:09:52.040Z,24.17
2019-03-21T21:12:21.579Z,24.97
2019-03-21T21:14:51.214Z,25.17
2019-03-21T21:17:20.852Z,25.40
2019-03-21T21:19:50.560Z,23.27
2019-03-21T21:22:24.290Z,24.30
2019-03-21T21:24:54.564Z,23.47
2019-03-21T21:27:24.226Z,23.70
2019-03-21T21:29:53.982Z,23.77
2019-03-21T21:32:23.642Z,24.23
2019-03-21T21:34:54.629Z,23.50
2019-03-21T21:37:24.911Z,24.60
2019-03-21T21:39:54.753Z,24.40
2019-03-21T21:42:24.742Z,24.17
2019-03-21T21:44:54.348Z,24.43
2019-03-21T21:47:26.325Z,24.73
2019-03-21T21:49:57.843Z,25.33
2019-03-21T21:52:27.553Z,25.13
2019-03-21T21:54:57.240Z,25.37
2019-03-21T21:57:26.930Z,26.07
2019-03-21T21:59:56.887Z,26.37
2019-03-21T22:02:26.939Z,27.43
2019-03-21T22:04:56.627Z,28.30
2019-03-21T22:07:26.852Z,31.47
2019-03-21T22:09:56.524Z,33.40
2019-03-21T22:12:26.218Z,30.80
2019-03-21T22:14:55.907Z,31.03
2019-03-21T22:17:25.628Z,32.40
2019-03-21T22:19:55.194Z,32.50
2019-03-21T22:22:24.934Z,31.60
2019-03-21T22:24:54.598Z,33.43
2019-03-21T22:27:24.309Z,32.10
2019-03-21T22:29:54.107Z,35.57
2019-03-21T22:32:23.851Z,34.77
2019-03-21T22:34:53.558Z,37.53
2019-03-21T22:37:23.303Z,34.50
2019-03-21T22:39:53.037Z,35.63
2019-03-21T22:42:22.804Z,34.27
2019-03-21T22:44:52.515Z,35.47
2019-03-21T22:47:22.235Z,34.17
2019-03-21T22:49:51.973Z,35.90
2019-03-21T22:52:24.036Z,35.80
2019-03-21T22:54:55.225Z,34.67
2019-03-21T22:57:27.176Z,34.77
2019-03-21T22:59:56.806Z,35.73
2019-03-21T23:02:26.919Z,35.37
2019-03-21T23:04:56.673Z,35.43
2019-03-21T23:07:26.357Z,46.17
2019-03-21T23:09:55.969Z,49.47
2019-03-21T23:12:26.483Z,49.13
2019-03-21T23:14:56.153Z,50.13
2019-03-21T23:17:25.848Z,51.83
2019-03-21T23:19:55.471Z,48.07
2019-03-21T23:22:27.809Z,49.30
2019-03-21T23:24:57.502Z,48.97
2019-03-21T23:27:27.129Z,49.10
2019-03-21T23:29:56.794Z,50.10
2019-03-21T23:32:26.524Z,50.33
2019-03-21T23:34:56.186Z,49.93
2019-03-21T23:37:27.429Z,52.57
2019-03-21T23:39:58.325Z,50.07
2019-03-21T23:42:28.081Z,50.20
2019-03-21T23:44:57.705Z,49.00
2019-03-21T23:47:27.433Z,51.77
2019-03-21T23:49:57.119Z,55.07
2019-03-21T23:52:26.780Z,53.83
2019-03-21T23:54:56.458Z,56.43
2019-03-21T23:57:26.107Z,54.43
2019-03-21T23:59:55.627Z,56.70
